sensor_id;sensor_type;location;lat;lon;timestamp;temperature;humidity
7934;DHT22;4012;48.896;9.192;2023-07-08T00:02:12;23.40;91.20
7934;DHT22;4012;48.896;9.192;2023-07-08T00:04:39;23.40;91.30
7934;DHT22;4012;48.896;9.192;2023-07-08T00:07:05;23.30;91.40
7934;DHT22;4012;48.896;9.192;2023-07-08T00:09:34;23.30;91.50
7934;DHT22;4012;48.896;9.192;2023-07-08T00:12:00;23.30;91.50
7934;DHT22;4012;48.896;9.192;2023-07-08T00:14:25;23.20;91.50
7934;DHT22;4012;48.896;9.192;2023-07-08T00:16:51;23.20;91.50
7934;DHT22;4012;48.896;9.192;2023-07-08T00:19:17;23.20;91.70
7934;DHT22;4012;48.896;9.192;2023-07-08T00:21:45;23.10;91.70
7934;DHT22;4012;48.896;9.192;2023-07-08T00:24:10;23.10;91.70
7934;DHT22;4012;48.896;9.192;2023-07-08T00:26:37;23.10;91.60
7934;DHT22;4012;48.896;9.192;2023-07-08T00:29:03;23.00;91.80
7934;DHT22;4012;48.896;9.192;2023-07-08T00:31:28;23.00;91.80
7934;DHT22;4012;48.896;9.192;2023-07-08T00:33:57;23.00;91.90
7934;DHT22;4012;48.896;9.192;2023-07-08T00:36:24;23.00;91.90
7934;DHT22;4012;48.896;9.192;2023-07-08T00:38:50;23.00;92.00
7934;DHT22;4012;48.896;9.192;2023-07-08T00:41:32;23.00;92.10
7934;DHT22;4012;48.896;9.192;2023-07-08T00:43:59;22.90;92.10
7934;DHT22;4012;48.896;9.192;2023-07-08T00:51:47;22.90;92.10
7934;DHT22;4012;48.896;9.192;2023-07-08T00:54:14;22.90;92.10
7934;DHT22;4012;48.896;9.192;2023-07-08T00:56:49;22.90;92.20
7934;DHT22;4012;48.896;9.192;2023-07-08T00:59:22;22.90;92.20
7934;DHT22;4012;48.896;9.192;2023-07-08T01:01:49;22.90;92.20
7934;DHT22;4012;48.896;9.192;2023-07-08T01:04:20;22.80;92.20
7934;DHT22;4012;48.896;9.192;2023-07-08T01:06:55;22.80;92.20
7934;DHT22;4012;48.896;9.192;2023-07-08T01:09:28;22.80;92.30
7934;DHT22;4012;48.896;9.192;2023-07-08T01:11:58;22.80;92.30
7934;DHT22;4012;48.896;9.192;2023-07-08T01:14:27;22.80;92.40
7934;DHT22;4012;48.896;9.192;2023-07-08T01:16:57;22.70;92.30
7934;DHT22;4012;48.896;9.192;2023-07-08T01:19:23;22.70;92.40
7934;DHT22;4012;48.896;9.192;2023-07-08T01:24:24;22.60;92.80
7934;DHT22;4012;48.896;9.192;2023-07-08T01:26:50;22.60;93.00
7934;DHT22;4012;48.896;9.192;2023-07-08T01:29:16;22.40;93.30
7934;DHT22;4012;48.896;9.192;2023-07-08T01:31:42;22.30;93.80
7934;DHT22;4012;48.896;9.192;2023-07-08T01:34:14;22.10;94.20
7934;DHT22;4012;48.896;9.192;2023-07-08T01:36:53;22.00;94.90
7934;DHT22;4012;48.896;9.192;2023-07-08T01:39:22;21.90;95.00
7934;DHT22;4012;48.896;9.192;2023-07-08T01:41:51;21.80;95.50
7934;DHT22;4012;48.896;9.192;2023-07-08T01:47:00;21.80;95.20
7934;DHT22;4012;48.896;9.192;2023-07-08T01:49:28;21.70;95.80
7934;DHT22;4012;48.896;9.192;2023-07-08T01:51:54;21.60;97.00
7934;DHT22;4012;48.896;9.192;2023-07-08T01:54:20;21.40;98.40
7934;DHT22;4012;48.896;9.192;2023-07-08T01:56:46;21.30;99.30
7934;DHT22;4012;48.896;9.192;2023-07-08T01:59:12;21.30;99.90
7934;DHT22;4012;48.896;9.192;2023-07-08T02:01:37;21.20;99.90
7934;DHT22;4012;48.896;9.192;2023-07-08T02:04:03;21.10;99.90
7934;DHT22;4012;48.896;9.192;2023-07-08T02:06:29;21.10;99.90
7934;DHT22;4012;48.896;9.192;2023-07-08T02:08:54;21.20;99.90
7934;DHT22;4012;48.896;9.192;2023-07-08T02:11:23;21.30;99.60
7934;DHT22;4012;48.896;9.192;2023-07-08T02:13:49;21.30;99.10
7934;DHT22;4012;48.896;9.192;2023-07-08T02:16:15;21.40;99.00
7934;DHT22;4012;48.896;9.192;2023-07-08T02:18:40;21.40;98.90
7934;DHT22;4012;48.896;9.192;2023-07-08T02:21:06;21.40;99.00
7934;DHT22;4012;48.896;9.192;2023-07-08T02:23:31;21.40;99.10
7934;DHT22;4012;48.896;9.192;2023-07-08T02:25:57;21.40;99.10
7934;DHT22;4012;48.896;9.192;2023-07-08T02:28:22;21.40;99.20
7934;DHT22;4012;48.896;9.192;2023-07-08T02:30:48;21.40;99.20
7934;DHT22;4012;48.896;9.192;2023-07-08T02:33:14;21.40;99.30
7934;DHT22;4012;48.896;9.192;2023-07-08T02:35:42;21.40;99.30
7934;DHT22;4012;48.896;9.192;2023-07-08T02:38:08;21.40;99.20
7934;DHT22;4012;48.896;9.192;2023-07-08T02:40:34;21.40;99.10
7934;DHT22;4012;48.896;9.192;2023-07-08T02:42:59;21.40;99.00
7934;DHT22;4012;48.896;9.192;2023-07-08T02:45:25;21.40;99.00
7934;DHT22;4012;48.896;9.192;2023-07-08T02:47:51;21.40;98.90
7934;DHT22;4012;48.896;9.192;2023-07-08T02:50:16;21.40;98.80
7934;DHT22;4012;48.896;9.192;2023-07-08T02:52:44;21.40;98.80
7934;DHT22;4012;48.896;9.192;2023-07-08T02:55:09;21.40;98.80
7934;DHT22;4012;48.896;9.192;2023-07-08T02:57:35;21.40;99.00
7934;DHT22;4012;48.896;9.192;2023-07-08T03:00:01;21.40;99.30
7934;DHT22;4012;48.896;9.192;2023-07-08T03:02:29;21.30;99.20
7934;DHT22;4012;48.896;9.192;2023-07-08T03:04:55;21.30;99.40
7934;DHT22;4012;48.896;9.192;2023-07-08T03:07:24;21.30;99.50
7934;DHT22;4012;48.896;9.192;2023-07-08T03:09:50;21.30;99.50
7934;DHT22;4012;48.896;9.192;2023-07-08T03:12:16;21.40;99.50
7934;DHT22;4012;48.896;9.192;2023-07-08T03:14:41;21.40;99.60
7934;DHT22;4012;48.896;9.192;2023-07-08T03:17:07;21.40;99.90
7934;DHT22;4012;48.896;9.192;2023-07-08T03:19:33;21.30;99.90
7934;DHT22;4012;48.896;9.192;2023-07-08T03:21:58;21.30;99.90
7934;DHT22;4012;48.896;9.192;2023-07-08T03:24:24;21.30;99.90
7934;DHT22;4012;48.896;9.192;2023-07-08T03:26:50;21.30;99.90
7934;DHT22;4012;48.896;9.192;2023-07-08T03:29:20;21.20;99.90
7934;DHT22;4012;48.896;9.192;2023-07-08T03:31:46;21.20;99.90
7934;DHT22;4012;48.896;9.192;2023-07-08T03:34:13;21.20;99.90
7934;DHT22;4012;48.896;9.192;2023-07-08T03:36:44;21.10;99.90
7934;DHT22;4012;48.896;9.192;2023-07-08T03:39:15;21.00;99.90
7934;DHT22;4012;48.896;9.192;2023-07-08T03:41:41;20.90;99.90
7934;DHT22;4012;48.896;9.192;2023-07-08T03:44:07;20.90;99.90
7934;DHT22;4012;48.896;9.192;2023-07-08T03:46:32;20.80;99.90
7934;DHT22;4012;48.896;9.192;2023-07-08T03:48:58;20.80;99.90
7934;DHT22;4012;48.896;9.192;2023-07-08T03:51:30;20.80;99.90
7934;DHT22;4012;48.896;9.192;2023-07-08T03:53:57;20.70;99.90
7934;DHT22;4012;48.896;9.192;2023-07-08T03:56:23;20.70;99.90
7934;DHT22;4012;48.896;9.192;2023-07-08T03:58:49;20.50;99.90
7934;DHT22;4012;48.896;9.192;2023-07-08T04:01:18;20.30;99.90
7934;DHT22;4012;48.896;9.192;2023-07-08T04:03:44;20.10;99.90
7934;DHT22;4012;48.896;9.192;2023-07-08T04:06:10;20.20;99.90
7934;DHT22;4012;48.896;9.192;2023-07-08T04:08:36;20.10;99.90
7934;DHT22;4012;48.896;9.192;2023-07-08T04:11:01;20.20;99.90
7934;DHT22;4012;48.896;9.192;2023-07-08T04:13:27;20.20;99.90
7934;DHT22;4012;48.896;9.192;2023-07-08T04:15:56;20.40;99.90
7934;DHT22;4012;48.896;9.192;2023-07-08T04:18:22;20.40;99.90
7934;DHT22;4012;48.896;9.192;2023-07-08T04:20:48;20.50;99.90
7934;DHT22;4012;48.896;9.192;2023-07-08T04:23:18;20.60;99.90
7934;DHT22;4012;48.896;9.192;2023-07-08T04:25:44;20.60;99.90
7934;DHT22;4012;48.896;9.192;2023-07-08T04:28:10;20.50;99.90
7934;DHT22;4012;48.896;9.192;2023-07-08T04:30:35;20.60;99.90
7934;DHT22;4012;48.896;9.192;2023-07-08T04:33:13;20.50;99.90
7934;DHT22;4012;48.896;9.192;2023-07-08T04:35:40;20.30;99.90
7934;DHT22;4012;48.896;9.192;2023-07-08T04:38:09;20.30;99.90
7934;DHT22;4012;48.896;9.192;2023-07-08T04:40:39;20.30;99.90
7934;DHT22;4012;48.896;9.192;2023-07-08T04:43:08;20.40;99.90
7934;DHT22;4012;48.896;9.192;2023-07-08T04:45:40;20.50;99.90
7934;DHT22;4012;48.896;9.192;2023-07-08T04:48:07;20.60;99.90
7934;DHT22;4012;48.896;9.192;2023-07-08T04:50:45;20.70;99.90
7934;DHT22;4012;48.896;9.192;2023-07-08T04:53:11;20.70;99.90
7934;DHT22;4012;48.896;9.192;2023-07-08T04:55:43;20.70;99.90
7934;DHT22;4012;48.896;9.192;2023-07-08T04:58:09;20.90;99.90
7934;DHT22;4012;48.896;9.192;2023-07-08T05:00:35;21.20;99.90
7934;DHT22;4012;48.896;9.192;2023-07-08T05:03:01;21.40;99.90
7934;DHT22;4012;48.896;9.192;2023-07-08T05:05:27;21.70;99.90
7934;DHT22;4012;48.896;9.192;2023-07-08T05:07:52;22.00;99.90
7934;DHT22;4012;48.896;9.192;2023-07-08T05:10:19;22.00;99.90
7934;DHT22;4012;48.896;9.192;2023-07-08T05:12:45;22.10;99.90
7934;DHT22;4012;48.896;9.192;2023-07-08T05:15:12;22.30;99.90
7934;DHT22;4012;48.896;9.192;2023-07-08T05:17:41;22.30;99.90
7934;DHT22;4012;48.896;9.192;2023-07-08T05:20:09;22.40;99.90
7934;DHT22;4012;48.896;9.192;2023-07-08T05:22:35;22.20;99.90
7934;DHT22;4012;48.896;9.192;2023-07-08T05:25:01;22.40;99.90
7934;DHT22;4012;48.896;9.192;2023-07-08T05:27:27;22.40;99.90
7934;DHT22;4012;48.896;9.192;2023-07-08T05:29:53;22.50;99.90
7934;DHT22;4012;48.896;9.192;2023-07-08T05:32:19;22.50;99.90
7934;DHT22;4012;48.896;9.192;2023-07-08T05:34:45;22.40;99.90
7934;DHT22;4012;48.896;9.192;2023-07-08T05:37:14;22.50;99.90
7934;DHT22;4012;48.896;9.192;2023-07-08T05:39:40;22.40;99.90
7934;DHT22;4012;48.896;9.192;2023-07-08T05:42:05;22.30;99.90
7934;DHT22;4012;48.896;9.192;2023-07-08T05:44:31;22.50;99.90
7934;DHT22;4012;48.896;9.192;2023-07-08T05:46:57;22.80;99.90
7934;DHT22;4012;48.896;9.192;2023-07-08T05:49:22;23.00;99.90
7934;DHT22;4012;48.896;9.192;2023-07-08T05:51:48;23.00;99.90
7934;DHT22;4012;48.896;9.192;2023-07-08T05:54:14;23.00;99.90
7934;DHT22;4012;48.896;9.192;2023-07-08T05:56:40;23.20;99.90
7934;DHT22;4012;48.896;9.192;2023-07-08T05:59:05;23.30;99.90
7934;DHT22;4012;48.896;9.192;2023-07-08T06:01:32;23.40;99.90
7934;DHT22;4012;48.896;9.192;2023-07-08T06:03:57;23.40;99.90
7934;DHT22;4012;48.896;9.192;2023-07-08T06:06:26;23.60;99.90
7934;DHT22;4012;48.896;9.192;2023-07-08T06:08:52;23.70;99.90
7934;DHT22;4012;48.896;9.192;2023-07-08T06:11:18;23.80;99.90
7934;DHT22;4012;48.896;9.192;2023-07-08T06:13:44;23.80;99.90
7934;DHT22;4012;48.896;9.192;2023-07-08T06:16:10;23.90;99.90
7934;DHT22;4012;48.896;9.192;2023-07-08T06:18:35;24.30;99.90
7934;DHT22;4012;48.896;9.192;2023-07-08T06:21:02;24.50;99.90
7934;DHT22;4012;48.896;9.192;2023-07-08T06:23:28;24.70;99.90
7934;DHT22;4012;48.896;9.192;2023-07-08T06:25:54;26.10;99.90
7934;DHT22;4012;48.896;9.192;2023-07-08T06:28:20;28.60;99.90
7934;DHT22;4012;48.896;9.192;2023-07-08T06:30:46;30.40;99.90
7934;DHT22;4012;48.896;9.192;2023-07-08T06:33:12;32.60;97.20
7934;DHT22;4012;48.896;9.192;2023-07-08T06:35:46;34.10;93.80
7934;DHT22;4012;48.896;9.192;2023-07-08T06:38:12;34.60;91.30
7934;DHT22;4012;48.896;9.192;2023-07-08T06:40:38;36.40;86.80
7934;DHT22;4012;48.896;9.192;2023-07-08T06:43:03;36.60;83.90
7934;DHT22;4012;48.896;9.192;2023-07-08T06:45:29;35.90;81.00
7934;DHT22;4012;48.896;9.192;2023-07-08T06:47:55;36.20;81.60
7934;DHT22;4012;48.896;9.192;2023-07-08T06:50:20;37.70;78.70
7934;DHT22;4012;48.896;9.192;2023-07-08T06:52:46;37.80;77.90
7934;DHT22;4012;48.896;9.192;2023-07-08T06:55:12;38.40;74.60
7934;DHT22;4012;48.896;9.192;2023-07-08T06:57:38;37.40;73.70
7934;DHT22;4012;48.896;9.192;2023-07-08T07:00:06;37.10;74.10
7934;DHT22;4012;48.896;9.192;2023-07-08T07:02:32;38.80;72.90
7934;DHT22;4012;48.896;9.192;2023-07-08T07:04:58;38.90;72.20
7934;DHT22;4012;48.896;9.192;2023-07-08T07:07:24;38.60;70.90
7934;DHT22;4012;48.896;9.192;2023-07-08T07:09:50;36.90;72.00
7934;DHT22;4012;48.896;9.192;2023-07-08T07:12:16;34.80;75.00
7934;DHT22;4012;48.896;9.192;2023-07-08T07:14:41;32.80;77.90
7934;DHT22;4012;48.896;9.192;2023-07-08T07:17:07;30.80;82.30
7934;DHT22;4012;48.896;9.192;2023-07-08T07:19:32;29.20;86.90
7934;DHT22;4012;48.896;9.192;2023-07-08T07:21:58;28.70;90.30
7934;DHT22;4012;48.896;9.192;2023-07-08T07:24:24;28.70;91.60
7934;DHT22;4012;48.896;9.192;2023-07-08T07:26:49;28.10;93.40
7934;DHT22;4012;48.896;9.192;2023-07-08T07:29:16;27.60;95.60
7934;DHT22;4012;48.896;9.192;2023-07-08T07:31:43;27.60;95.80
7934;DHT22;4012;48.896;9.192;2023-07-08T07:34:09;27.60;97.30
7934;DHT22;4012;48.896;9.192;2023-07-08T07:36:36;28.20;97.80
7934;DHT22;4012;48.896;9.192;2023-07-08T07:39:01;27.90;98.10
7934;DHT22;4012;48.896;9.192;2023-07-08T07:41:27;27.20;99.40
7934;DHT22;4012;48.896;9.192;2023-07-08T07:43:52;27.70;99.90
7934;DHT22;4012;48.896;9.192;2023-07-08T07:46:18;29.00;98.50
7934;DHT22;4012;48.896;9.192;2023-07-08T07:48:44;29.40;97.40
7934;DHT22;4012;48.896;9.192;2023-07-08T07:51:09;29.50;96.60
7934;DHT22;4012;48.896;9.192;2023-07-08T07:53:37;29.70;97.00
7934;DHT22;4012;48.896;9.192;2023-07-08T07:56:03;31.40;96.00
7934;DHT22;4012;48.896;9.192;2023-07-08T07:58:29;31.10;93.70
7934;DHT22;4012;48.896;9.192;2023-07-08T08:00:56;30.10;93.20
7934;DHT22;4012;48.896;9.192;2023-07-08T08:03:22;29.70;94.00
7934;DHT22;4012;48.896;9.192;2023-07-08T08:05:48;30.70;94.00
7934;DHT22;4012;48.896;9.192;2023-07-08T08:08:15;32.50;91.80
7934;DHT22;4012;48.896;9.192;2023-07-08T08:10:42;33.30;89.00
7934;DHT22;4012;48.896;9.192;2023-07-08T08:13:08;33.90;87.20
7934;DHT22;4012;48.896;9.192;2023-07-08T08:15:34;35.30;83.90
7934;DHT22;4012;48.896;9.192;2023-07-08T08:18:00;37.80;79.30
7934;DHT22;4012;48.896;9.192;2023-07-08T08:20:26;36.40;77.00
7934;DHT22;4012;48.896;9.192;2023-07-08T08:22:52;34.50;78.70
7934;DHT22;4012;48.896;9.192;2023-07-08T08:25:19;35.30;78.40
7934;DHT22;4012;48.896;9.192;2023-07-08T08:27:45;36.10;77.40
7934;DHT22;4012;48.896;9.192;2023-07-08T08:30:12;37.80;75.20
7934;DHT22;4012;48.896;9.192;2023-07-08T08:32:37;37.60;75.40
7934;DHT22;4012;48.896;9.192;2023-07-08T08:35:04;38.10;74.20
7934;DHT22;4012;48.896;9.192;2023-07-08T08:37:30;35.40;76.60
7934;DHT22;4012;48.896;9.192;2023-07-08T08:39:55;36.40;76.40
7934;DHT22;4012;48.896;9.192;2023-07-08T08:42:33;35.20;76.70
7934;DHT22;4012;48.896;9.192;2023-07-08T08:45:00;35.80;77.70
7934;DHT22;4012;48.896;9.192;2023-07-08T08:47:37;34.60;77.30
7934;DHT22;4012;48.896;9.192;2023-07-08T08:53:00;36.80;76.80
7934;DHT22;4012;48.896;9.192;2023-07-08T08:55:26;36.40;76.80
7934;DHT22;4012;48.896;9.192;2023-07-08T09:01:06;39.00;71.60
7934;DHT22;4012;48.896;9.192;2023-07-08T09:03:41;36.40;71.30
7934;DHT22;4012;48.896;9.192;2023-07-08T09:06:14;35.40;73.70
7934;DHT22;4012;48.896;9.192;2023-07-08T09:08:40;38.70;72.10
7934;DHT22;4012;48.896;9.192;2023-07-08T09:11:55;41.20;67.60
7934;DHT22;4012;48.896;9.192;2023-07-08T09:13:59;41.80;65.70
7934;DHT22;4012;48.896;9.192;2023-07-08T09:19:30;38.00;66.40
7934;DHT22;4012;48.896;9.192;2023-07-08T09:22:15;36.60;68.10
7934;DHT22;4012;48.896;9.192;2023-07-08T09:24:53;35.10;70.10
7934;DHT22;4012;48.896;9.192;2023-07-08T09:27:22;37.40;70.10
7934;DHT22;4012;48.896;9.192;2023-07-08T09:29:48;36.50;70.30
7934;DHT22;4012;48.896;9.192;2023-07-08T09:32:15;36.50;69.80
7934;DHT22;4012;48.896;9.192;2023-07-08T09:34:49;36.30;69.70
7934;DHT22;4012;48.896;9.192;2023-07-08T09:37:28;37.20;70.10
7934;DHT22;4012;48.896;9.192;2023-07-08T09:39:55;35.50;70.10
7934;DHT22;4012;48.896;9.192;2023-07-08T09:42:25;34.70;73.10
7934;DHT22;4012;48.896;9.192;2023-07-08T09:44:57;36.90;70.50
7934;DHT22;4012;48.896;9.192;2023-07-08T09:47:26;35.60;71.50
7934;DHT22;4012;48.896;9.192;2023-07-08T09:49:57;35.60;72.00
7934;DHT22;4012;48.896;9.192;2023-07-08T09:52:25;36.60;70.70
7934;DHT22;4012;48.896;9.192;2023-07-08T09:54:51;37.50;69.20
7934;DHT22;4012;48.896;9.192;2023-07-08T09:57:29;37.00;69.30
7934;DHT22;4012;48.896;9.192;2023-07-08T09:59:58;37.20;69.40
7934;DHT22;4012;48.896;9.192;2023-07-08T10:04:57;40.50;63.60
7934;DHT22;4012;48.896;9.192;2023-07-08T10:07:23;39.90;62.20
7934;DHT22;4012;48.896;9.192;2023-07-08T10:09:51;40.40;61.80
7934;DHT22;4012;48.896;9.192;2023-07-08T10:12:20;40.00;61.60
7934;DHT22;4012;48.896;9.192;2023-07-08T10:14:53;40.80;60.10
7934;DHT22;4012;48.896;9.192;2023-07-08T10:17:21;40.60;58.70
7934;DHT22;4012;48.896;9.192;2023-07-08T10:19:47;40.90;58.90
7934;DHT22;4012;48.896;9.192;2023-07-08T10:25:11;40.10;60.30
7934;DHT22;4012;48.896;9.192;2023-07-08T10:27:56;40.30;59.10
7934;DHT22;4012;48.896;9.192;2023-07-08T10:31:31;40.00;58.90
7934;DHT22;4012;48.896;9.192;2023-07-08T10:33:43;39.40;61.10
7934;DHT22;4012;48.896;9.192;2023-07-08T10:36:19;37.70;62.30
7934;DHT22;4012;48.896;9.192;2023-07-08T10:38:59;37.10;63.70
7934;DHT22;4012;48.896;9.192;2023-07-08T10:41:58;38.30;63.20
7934;DHT22;4012;48.896;9.192;2023-07-08T10:50:30;39.00;64.90
7934;DHT22;4012;48.896;9.192;2023-07-08T10:56:00;37.80;65.80
7934;DHT22;4012;48.896;9.192;2023-07-08T10:58:39;37.40;67.60
7934;DHT22;4012;48.896;9.192;2023-07-08T11:01:39;36.10;70.40
7934;DHT22;4012;48.896;9.192;2023-07-08T11:04:10;35.00;72.80
7934;DHT22;4012;48.896;9.192;2023-07-08T11:07:00;34.10;74.20
7934;DHT22;4012;48.896;9.192;2023-07-08T11:09:52;33.50;76.30
7934;DHT22;4012;48.896;9.192;2023-07-08T11:12:33;33.60;76.00
7934;DHT22;4012;48.896;9.192;2023-07-08T11:15:23;33.70;77.10
7934;DHT22;4012;48.896;9.192;2023-07-08T11:18:06;33.50;77.20
7934;DHT22;4012;48.896;9.192;2023-07-08T11:20:56;33.70;77.10
7934;DHT22;4012;48.896;9.192;2023-07-08T11:23:45;33.90;76.30
7934;DHT22;4012;48.896;9.192;2023-07-08T11:26:23;33.60;77.20
7934;DHT22;4012;48.896;9.192;2023-07-08T11:28:52;33.30;77.00
7934;DHT22;4012;48.896;9.192;2023-07-08T11:31:19;33.10;76.40
7934;DHT22;4012;48.896;9.192;2023-07-08T11:33:46;33.00;77.20
7934;DHT22;4012;48.896;9.192;2023-07-08T11:36:13;33.20;78.20
7934;DHT22;4012;48.896;9.192;2023-07-08T11:38:54;33.10;76.90
7934;DHT22;4012;48.896;9.192;2023-07-08T11:41:22;33.10;77.70
7934;DHT22;4012;48.896;9.192;2023-07-08T11:43:51;33.20;77.80
7934;DHT22;4012;48.896;9.192;2023-07-08T11:46:27;33.40;76.80
7934;DHT22;4012;48.896;9.192;2023-07-08T11:49:04;33.30;76.80
7934;DHT22;4012;48.896;9.192;2023-07-08T11:51:32;33.50;76.40
7934;DHT22;4012;48.896;9.192;2023-07-08T11:57:06;33.30;75.60
7934;DHT22;4012;48.896;9.192;2023-07-08T11:59:38;33.40;75.40
7934;DHT22;4012;48.896;9.192;2023-07-08T12:02:14;33.10;75.50
7934;DHT22;4012;48.896;9.192;2023-07-08T12:05:02;33.10;75.80
7934;DHT22;4012;48.896;9.192;2023-07-08T12:07:48;33.30;76.00
7934;DHT22;4012;48.896;9.192;2023-07-08T12:10:27;33.40;74.80
7934;DHT22;4012;48.896;9.192;2023-07-08T12:12:53;33.30;75.20
7934;DHT22;4012;48.896;9.192;2023-07-08T12:15:26;33.30;75.80
7934;DHT22;4012;48.896;9.192;2023-07-08T12:17:56;33.10;75.90
7934;DHT22;4012;48.896;9.192;2023-07-08T12:20:36;33.20;75.60
7934;DHT22;4012;48.896;9.192;2023-07-08T12:23:03;33.10;74.70
7934;DHT22;4012;48.896;9.192;2023-07-08T12:25:34;33.10;74.90
7934;DHT22;4012;48.896;9.192;2023-07-08T12:28:01;33.10;73.70
7934;DHT22;4012;48.896;9.192;2023-07-08T12:30:29;32.90;73.70
7934;DHT22;4012;48.896;9.192;2023-07-08T12:32:55;32.40;75.20
7934;DHT22;4012;48.896;9.192;2023-07-08T12:35:30;32.90;74.90
7934;DHT22;4012;48.896;9.192;2023-07-08T12:37:59;32.90;74.40
7934;DHT22;4012;48.896;9.192;2023-07-08T12:40:27;32.40;75.40
7934;DHT22;4012;48.896;9.192;2023-07-08T12:42:54;32.80;75.20
7934;DHT22;4012;48.896;9.192;2023-07-08T12:45:22;32.70;74.90
7934;DHT22;4012;48.896;9.192;2023-07-08T12:47:48;33.10;74.80
7934;DHT22;4012;48.896;9.192;2023-07-08T12:50:15;32.90;73.80
7934;DHT22;4012;48.896;9.192;2023-07-08T12:52:44;32.50;74.20
7934;DHT22;4012;48.896;9.192;2023-07-08T12:55:11;32.20;74.40
7934;DHT22;4012;48.896;9.192;2023-07-08T12:57:39;31.80;75.70
7934;DHT22;4012;48.896;9.192;2023-07-08T13:00:05;32.30;75.80
7934;DHT22;4012;48.896;9.192;2023-07-08T13:02:32;32.90;75.50
7934;DHT22;4012;48.896;9.192;2023-07-08T13:05:00;32.20;75.50
7934;DHT22;4012;48.896;9.192;2023-07-08T13:07:36;32.40;76.30
7934;DHT22;4012;48.896;9.192;2023-07-08T13:10:04;32.30;76.20
7934;DHT22;4012;48.896;9.192;2023-07-08T13:12:33;32.80;75.40
7934;DHT22;4012;48.896;9.192;2023-07-08T13:15:02;32.70;75.00
7934;DHT22;4012;48.896;9.192;2023-07-08T13:17:29;32.70;74.90
7934;DHT22;4012;48.896;9.192;2023-07-08T13:19:56;33.00;74.90
7934;DHT22;4012;48.896;9.192;2023-07-08T13:22:23;33.00;74.60
7934;DHT22;4012;48.896;9.192;2023-07-08T13:25:02;33.10;74.90
7934;DHT22;4012;48.896;9.192;2023-07-08T13:27:28;33.30;74.70
7934;DHT22;4012;48.896;9.192;2023-07-08T13:30:15;33.40;74.10
7934;DHT22;4012;48.896;9.192;2023-07-08T13:32:40;33.20;74.80
7934;DHT22;4012;48.896;9.192;2023-07-08T13:35:39;32.80;74.40
7934;DHT22;4012;48.896;9.192;2023-07-08T13:38:05;32.00;75.50
7934;DHT22;4012;48.896;9.192;2023-07-08T13:40:31;32.00;76.10
7934;DHT22;4012;48.896;9.192;2023-07-08T13:42:57;32.30;75.70
7934;DHT22;4012;48.896;9.192;2023-07-08T13:45:26;32.90;75.30
7934;DHT22;4012;48.896;9.192;2023-07-08T13:48:13;33.20;75.20
7934;DHT22;4012;48.896;9.192;2023-07-08T13:56:22;33.10;75.90
7934;DHT22;4012;48.896;9.192;2023-07-08T13:59:09;33.60;74.60
7934;DHT22;4012;48.896;9.192;2023-07-08T14:01:44;33.30;74.80
7934;DHT22;4012;48.896;9.192;2023-07-08T14:04:13;33.10;75.20
7934;DHT22;4012;48.896;9.192;2023-07-08T14:06:40;33.10;76.00
7934;DHT22;4012;48.896;9.192;2023-07-08T14:09:18;33.10;74.90
7934;DHT22;4012;48.896;9.192;2023-07-08T14:11:45;33.30;74.70
7934;DHT22;4012;48.896;9.192;2023-07-08T14:14:11;33.30;74.80
7934;DHT22;4012;48.896;9.192;2023-07-08T14:16:43;33.80;75.10
7934;DHT22;4012;48.896;9.192;2023-07-08T14:19:30;34.30;74.60
7934;DHT22;4012;48.896;9.192;2023-07-08T14:24:40;33.70;74.60
7934;DHT22;4012;48.896;9.192;2023-07-08T14:27:10;33.50;74.20
7934;DHT22;4012;48.896;9.192;2023-07-08T14:29:41;33.50;74.20
7934;DHT22;4012;48.896;9.192;2023-07-08T14:32:18;34.00;72.80
7934;DHT22;4012;48.896;9.192;2023-07-08T14:34:51;34.00;73.20
7934;DHT22;4012;48.896;9.192;2023-07-08T14:37:18;34.20;73.00
7934;DHT22;4012;48.896;9.192;2023-07-08T14:39:47;34.60;71.40
7934;DHT22;4012;48.896;9.192;2023-07-08T14:42:15;34.60;71.40
7934;DHT22;4012;48.896;9.192;2023-07-08T14:44:43;34.20;70.90
7934;DHT22;4012;48.896;9.192;2023-07-08T14:47:12;34.10;71.50
7934;DHT22;4012;48.896;9.192;2023-07-08T14:49:37;34.20;71.60
7934;DHT22;4012;48.896;9.192;2023-07-08T14:52:03;34.00;71.30
7934;DHT22;4012;48.896;9.192;2023-07-08T14:54:29;34.30;71.50
7934;DHT22;4012;48.896;9.192;2023-07-08T14:56:56;33.40;72.40
7934;DHT22;4012;48.896;9.192;2023-07-08T14:59:24;32.80;71.60
7934;DHT22;4012;48.896;9.192;2023-07-08T15:01:52;32.30;71.80
7934;DHT22;4012;48.896;9.192;2023-07-08T15:04:19;32.50;72.20
7934;DHT22;4012;48.896;9.192;2023-07-08T15:06:46;32.60;72.10
7934;DHT22;4012;48.896;9.192;2023-07-08T15:09:12;32.60;72.20
7934;DHT22;4012;48.896;9.192;2023-07-08T15:11:40;33.00;72.00
7934;DHT22;4012;48.896;9.192;2023-07-08T15:14:22;33.10;71.70
7934;DHT22;4012;48.896;9.192;2023-07-08T15:16:49;33.40;72.70
7934;DHT22;4012;48.896;9.192;2023-07-08T15:19:16;33.80;72.10
7934;DHT22;4012;48.896;9.192;2023-07-08T15:21:42;33.80;71.90
7934;DHT22;4012;48.896;9.192;2023-07-08T15:24:12;33.90;71.30
7934;DHT22;4012;48.896;9.192;2023-07-08T15:26:40;33.80;71.30
7934;DHT22;4012;48.896;9.192;2023-07-08T15:29:21;33.70;71.30
7934;DHT22;4012;48.896;9.192;2023-07-08T15:31:47;33.10;72.00
7934;DHT22;4012;48.896;9.192;2023-07-08T15:34:22;33.10;72.30
7934;DHT22;4012;48.896;9.192;2023-07-08T15:36:48;32.90;72.90
7934;DHT22;4012;48.896;9.192;2023-07-08T15:39:14;33.10;73.60
7934;DHT22;4012;48.896;9.192;2023-07-08T15:41:41;33.00;73.60
7934;DHT22;4012;48.896;9.192;2023-07-08T15:44:16;33.00;73.70
7934;DHT22;4012;48.896;9.192;2023-07-08T15:46:47;33.00;73.60
7934;DHT22;4012;48.896;9.192;2023-07-08T15:49:24;33.00;73.60
7934;DHT22;4012;48.896;9.192;2023-07-08T15:51:52;33.30;73.70
7934;DHT22;4012;48.896;9.192;2023-07-08T15:54:18;33.60;73.20
7934;DHT22;4012;48.896;9.192;2023-07-08T15:56:53;33.50;73.40
7934;DHT22;4012;48.896;9.192;2023-07-08T15:59:22;33.60;73.00
7934;DHT22;4012;48.896;9.192;2023-07-08T16:01:49;33.70;72.50
7934;DHT22;4012;48.896;9.192;2023-07-08T16:04:20;33.70;72.60
7934;DHT22;4012;48.896;9.192;2023-07-08T16:06:47;33.70;73.20
7934;DHT22;4012;48.896;9.192;2023-07-08T16:09:12;33.80;72.90
7934;DHT22;4012;48.896;9.192;2023-07-08T16:11:38;33.70;73.10
7934;DHT22;4012;48.896;9.192;2023-07-08T16:14:04;33.70;73.50
7934;DHT22;4012;48.896;9.192;2023-07-08T16:16:29;33.60;72.80
7934;DHT22;4012;48.896;9.192;2023-07-08T16:18:55;33.50;73.20
7934;DHT22;4012;48.896;9.192;2023-07-08T16:21:21;33.30;73.50
7934;DHT22;4012;48.896;9.192;2023-07-08T16:23:47;33.40;73.30
7934;DHT22;4012;48.896;9.192;2023-07-08T16:26:15;33.20;73.20
7934;DHT22;4012;48.896;9.192;2023-07-08T16:28:43;33.20;73.00
7934;DHT22;4012;48.896;9.192;2023-07-08T16:31:13;32.70;73.40
7934;DHT22;4012;48.896;9.192;2023-07-08T16:33:40;32.70;74.20
7934;DHT22;4012;48.896;9.192;2023-07-08T16:36:13;32.90;73.70
7934;DHT22;4012;48.896;9.192;2023-07-08T16:38:40;32.70;73.50
7934;DHT22;4012;48.896;9.192;2023-07-08T16:41:12;32.70;74.70
7934;DHT22;4012;48.896;9.192;2023-07-08T16:43:39;32.80;74.70
7934;DHT22;4012;48.896;9.192;2023-07-08T16:46:04;33.00;73.70
7934;DHT22;4012;48.896;9.192;2023-07-08T16:48:30;33.00;73.30
7934;DHT22;4012;48.896;9.192;2023-07-08T16:50:56;33.10;73.50
7934;DHT22;4012;48.896;9.192;2023-07-08T16:53:22;33.00;73.70
7934;DHT22;4012;48.896;9.192;2023-07-08T16:55:48;32.80;73.90
7934;DHT22;4012;48.896;9.192;2023-07-08T16:58:14;32.90;74.10
7934;DHT22;4012;48.896;9.192;2023-07-08T17:00:45;32.90;73.70